createdAt,value
2019-01-02T00:03:50.885Z,4.03
2019-01-02T00:06:21.581Z,11.57
2019-01-02T00:08:52.593Z,7.73
2019-01-02T00:11:23.265Z,3.63
2019-01-02T00:13:54.389Z,5.70
2019-01-02T00:16:25.069Z,4.97
2019-01-02T00:18:55.699Z,6.57
2019-01-02T00:21:26.713Z,5.87
2019-01-02T00:23:57.425Z,6.23
2019-01-02T00:26:28.313Z,10.17
2019-01-02T00:28:58.961Z,9.90
2019-01-02T00:31:30.042Z,7.87
2019-01-02T00:34:00.763Z,7.67
2019-01-02T00:36:31.436Z,5.13
2019-01-02T00:39:02.145Z,5.70
2019-01-02T00:41:34.628Z,4.10
2019-01-02T00:44:05.642Z,5.33
2019-01-02T00:46:36.256Z,4.97
2019-01-02T00:49:07.369Z,2.50
2019-01-02T00:51:38.046Z,5.97
2019-01-02T00:54:08.958Z,6.90
2019-01-02T00:56:39.635Z,8.03
2019-01-02T00:59:10.681Z,7.43
2019-01-02T01:01:41.307Z,2.83
2019-01-02T01:04:12.258Z,6.67
2019-01-02T01:06:42.869Z,7.00
2019-01-02T01:09:13.897Z,9.63
2019-01-02T01:11:44.505Z,5.50
2019-01-02T01:14:15.405Z,11.00
2019-01-02T01:16:46.109Z,5.60
2019-01-02T01:19:17.088Z,7.13
2019-01-02T01:21:47.805Z,5.17
2019-01-02T01:24:18.484Z,4.63
2019-01-02T01:26:49.117Z,6.80
2019-01-02T01:29:19.729Z,6.20
2019-01-02T01:31:50.774Z,12.53
2019-01-02T01:34:21.466Z,7.33
2019-01-02T01:36:52.240Z,7.40
2019-01-02T01:39:23.222Z,7.67
2019-01-02T01:41:53.957Z,16.40
2019-01-02T01:44:24.569Z,7.30
2019-01-02T01:46:55.585Z,10.43
2019-01-02T01:49:26.274Z,4.73
2019-01-02T01:51:58.046Z,10.57
2019-01-02T01:54:28.749Z,12.10
2019-01-02T01:56:59.460Z,5.37
2019-01-02T01:59:30.448Z,7.80
2019-01-02T02:02:01.153Z,5.03
2019-01-02T02:04:31.834Z,12.47
2019-01-02T02:07:02.647Z,9.10
2019-01-02T02:09:33.342Z,3.97
2019-01-02T02:12:03.952Z,5.90
2019-01-02T02:14:34.949Z,9.97
2019-01-02T02:17:05.580Z,10.80
2019-01-02T02:19:36.188Z,11.80
2019-01-02T02:22:06.831Z,15.37
2019-01-02T02:24:37.430Z,11.53
2019-01-02T02:27:08.248Z,9.37
2019-01-02T02:29:38.920Z,10.57
2019-01-02T02:32:09.544Z,11.60
2019-01-02T02:34:40.221Z,9.13
2019-01-02T02:37:10.850Z,9.30
2019-01-02T02:39:41.534Z,9.63
2019-01-02T02:42:12.480Z,11.90
2019-01-02T02:44:43.388Z,14.07
2019-01-02T02:47:14.089Z,8.60
2019-01-02T02:49:44.706Z,11.00
2019-01-02T02:52:15.337Z,9.53
2019-01-02T02:54:46.021Z,5.97
2019-01-02T02:57:16.647Z,6.70
2019-01-02T02:59:47.318Z,8.80
2019-01-02T03:02:18.030Z,8.80
2019-01-02T03:04:49.021Z,12.17
2019-01-02T03:07:19.862Z,9.20
2019-01-02T03:09:50.853Z,14.03
2019-01-02T03:12:21.861Z,16.13
2019-01-02T03:14:52.472Z,11.33
2019-01-02T03:17:23.180Z,9.90
2019-01-02T03:19:54.272Z,6.63
2019-01-02T03:22:25.393Z,10.13
2019-01-02T03:24:56.390Z,10.00
2019-01-02T03:27:27.492Z,10.50
2019-01-02T03:29:58.477Z,7.83
2019-01-02T03:32:29.595Z,15.23
2019-01-02T03:35:00.541Z,10.23
2019-01-02T03:37:31.197Z,8.70
2019-01-02T03:40:01.725Z,12.10
2019-01-02T03:42:32.371Z,9.97
2019-01-02T03:45:03.058Z,15.70
2019-01-02T03:47:33.761Z,5.60
2019-01-02T03:50:04.872Z,16.07
2019-01-02T03:52:35.501Z,5.67
2019-01-02T03:55:07.453Z,8.33
2019-01-02T03:57:38.094Z,6.80
2019-01-02T04:00:11.699Z,19.27
2019-01-02T04:02:42.419Z,19.87
2019-01-02T04:05:14.377Z,8.17
2019-01-02T04:07:48.241Z,14.03
2019-01-02T04:10:18.932Z,7.40
2019-01-02T04:12:49.572Z,11.13
2019-01-02T04:15:20.245Z,19.30
2019-01-02T04:17:50.977Z,10.60
2019-01-02T04:20:21.597Z,13.30
2019-01-02T04:22:52.331Z,11.00
2019-01-02T04:25:23.004Z,12.50
2019-01-02T04:27:53.593Z,15.17
2019-01-02T04:30:24.200Z,6.80
2019-01-02T04:32:54.748Z,11.90
2019-01-02T04:35:25.385Z,9.17
2019-01-02T04:37:56.413Z,14.73
2019-01-02T04:40:27.041Z,20.07
2019-01-02T04:42:57.928Z,14.70
2019-01-02T04:45:28.460Z,14.30
2019-01-02T04:47:59.049Z,24.10
2019-01-02T04:50:29.741Z,14.60
2019-01-02T04:53:00.440Z,11.80
2019-01-02T04:55:31.051Z,13.47
2019-01-02T04:58:01.721Z,11.53
2019-01-02T05:00:32.340Z,11.90
2019-01-02T05:03:03.061Z,21.67
2019-01-02T05:05:33.677Z,15.77
2019-01-02T05:08:04.333Z,16.40
2019-01-02T05:10:34.949Z,21.37
2019-01-02T05:13:05.513Z,9.43
2019-01-02T05:15:36.196Z,21.33
2019-01-02T05:18:06.905Z,12.20
2019-01-02T05:20:37.511Z,11.83
2019-01-02T05:23:08.078Z,15.70
2019-01-02T05:25:38.634Z,13.60
2019-01-02T05:28:09.294Z,12.23
2019-01-02T05:30:39.994Z,14.67
2019-01-02T05:33:10.642Z,18.80
2019-01-02T05:35:41.334Z,16.37
2019-01-02T05:38:12.039Z,9.77
2019-01-02T05:40:42.720Z,26.70
2019-01-02T05:43:13.396Z,16.07
2019-01-02T05:45:43.929Z,11.93
2019-01-02T05:48:14.691Z,15.07
2019-01-02T05:50:45.333Z,19.50
2019-01-02T05:53:15.988Z,16.27
2019-01-02T05:55:46.601Z,8.17
2019-01-02T05:58:17.256Z,10.67
2019-01-02T06:00:47.871Z,17.23
2019-01-02T06:03:18.521Z,18.03
2019-01-02T06:05:49.235Z,13.43
2019-01-02T06:08:19.968Z,15.37
2019-01-02T06:10:50.653Z,19.20
2019-01-02T06:13:21.292Z,18.53
2019-01-02T06:15:51.899Z,19.10
2019-01-02T06:18:22.637Z,17.07
2019-01-02T06:20:53.368Z,18.17
2019-01-02T06:23:23.945Z,12.43
2019-01-02T06:25:54.699Z,14.60
2019-01-02T06:28:25.434Z,12.80
2019-01-02T06:30:56.200Z,13.53
2019-01-02T06:33:26.855Z,14.63
2019-01-02T06:35:57.453Z,20.30
2019-01-02T06:38:28.119Z,10.47
2019-01-02T06:40:58.810Z,18.83
2019-01-02T06:43:30.038Z,18.17
2019-01-02T06:46:03.322Z,8.43
2019-01-02T06:48:34.144Z,25.13
2019-01-02T06:51:04.829Z,12.77
2019-01-02T06:53:35.500Z,13.50
2019-01-02T06:56:06.118Z,15.27
2019-01-02T06:58:36.869Z,11.07
2019-01-02T07:01:07.671Z,12.40
2019-01-02T07:03:38.314Z,23.23
2019-01-02T07:06:08.925Z,21.90
2019-01-02T07:08:42.568Z,17.83
2019-01-02T07:11:13.246Z,14.73
2019-01-02T07:13:43.957Z,16.10
2019-01-02T07:16:14.582Z,18.37
2019-01-02T07:18:45.286Z,18.83
2019-01-02T07:21:44.460Z,20.20
2019-01-02T07:24:15.193Z,14.37
2019-01-02T07:26:45.805Z,18.77
2019-01-02T07:29:16.515Z,11.73
2019-01-02T07:31:47.209Z,15.47
2019-01-02T07:34:53.771Z,12.73
2019-01-02T07:38:05.595Z,13.27
2019-01-02T07:41:13.131Z,15.33
2019-01-02T07:44:19.222Z,12.20
2019-01-02T07:47:39.131Z,12.03
2019-01-02T07:50:49.877Z,14.47
2019-01-02T07:54:06.567Z,16.20
2019-01-02T07:56:59.381Z,16.63
2019-01-02T08:00:11.905Z,21.10
2019-01-02T08:03:25.582Z,20.60
2019-01-02T08:06:43.445Z,9.23
2019-01-02T08:09:33.359Z,19.43
2019-01-02T08:12:24.674Z,19.20
2019-01-02T08:15:45.223Z,12.30
2019-01-02T08:18:30.133Z,20.60
2019-01-02T08:21:44.736Z,17.57
2019-01-02T08:24:41.157Z,23.27
2019-01-02T08:27:51.073Z,12.20
2019-01-02T08:31:17.876Z,24.10
2019-01-02T08:34:38.519Z,11.90
2019-01-02T08:37:38.781Z,16.90
2019-01-02T08:40:53.417Z,10.53
2019-01-02T08:43:47.857Z,15.50
2019-01-02T08:47:15.887Z,15.83
2019-01-02T08:50:26.725Z,16.50
2019-01-02T08:53:42.709Z,23.97
2019-01-02T08:56:54.948Z,13.63
2019-01-02T08:59:56.451Z,13.23
2019-01-02T09:02:43.033Z,22.33
2019-01-02T09:05:57.555Z,23.40
2019-01-02T09:09:21.417Z,22.87
2019-01-02T09:12:42.377Z,14.23
2019-01-02T09:15:35.272Z,21.73
2019-01-02T09:18:22.161Z,24.47
2019-01-02T09:21:35.869Z,15.00
2019-01-02T09:24:59.038Z,17.30
2019-01-02T09:28:16.817Z,19.37
2019-01-02T09:31:31.636Z,16.27
2019-01-02T09:34:34.705Z,9.20
2019-01-02T09:38:04.489Z,15.43
2019-01-02T09:40:52.833Z,19.40
2019-01-02T09:43:41.850Z,16.70
2019-01-02T09:46:53.950Z,15.03
2019-01-02T09:50:14.863Z,18.50
2019-01-02T09:53:27.807Z,12.67
2019-01-02T09:56:33.010Z,16.43
2019-01-02T09:59:19.337Z,14.53
2019-01-02T10:02:40.588Z,16.07
2019-01-02T10:05:58.180Z,18.07
2019-01-02T10:08:49.997Z,19.80
2019-01-02T10:12:04.646Z,12.37
2019-01-02T10:14:55.883Z,12.50
2019-01-02T10:18:01.345Z,19.63
2019-01-02T10:21:21.218Z,14.20
2019-01-02T10:24:19.011Z,21.67
2019-01-02T10:27:11.270Z,11.93
2019-01-02T10:29:57.597Z,9.00
2019-01-02T10:33:11.424Z,20.53
2019-01-02T10:36:19.120Z,22.30
2019-01-02T10:39:32.414Z,21.97
2019-01-02T10:42:27.014Z,16.63
2019-01-02T10:45:47.488Z,14.43
2019-01-02T10:48:47.831Z,22.33
2019-01-02T10:52:17.837Z,19.20
2019-01-02T10:55:34.531Z,9.37
2019-01-02T10:58:45.035Z,18.80
2019-01-02T11:02:01.618Z,14.60
2019-01-02T11:05:22.174Z,14.63
2019-01-02T11:08:44.836Z,16.90
2019-01-02T11:12:14.693Z,24.13
2019-01-02T11:15:30.986Z,18.60
2019-01-02T11:18:53.980Z,16.77
2019-01-02T11:21:40.682Z,11.80
2019-01-02T11:24:49.535Z,24.33
2019-01-02T11:28:19.406Z,20.30
2019-01-02T11:31:19.540Z,28.13
2019-01-02T11:34:27.202Z,23.80
2019-01-02T11:37:13.078Z,14.67
2019-01-02T11:40:20.654Z,15.77
2019-01-02T11:43:31.419Z,18.33
2019-01-02T11:46:02.130Z,16.23
2019-01-02T11:48:32.669Z,15.00
2019-01-02T11:51:04.133Z,19.83
2019-01-02T11:53:36.590Z,16.40
2019-01-02T11:56:07.713Z,17.23
2019-01-02T11:58:38.628Z,19.03
2019-01-02T12:01:09.345Z,19.43
2019-01-02T12:03:40.051Z,22.43
2019-01-02T12:06:10.761Z,15.33
2019-01-02T12:08:41.389Z,21.97
2019-01-02T12:11:12.023Z,19.43
2019-01-02T12:13:42.600Z,15.40
2019-01-02T12:16:13.321Z,13.10
2019-01-02T12:18:43.951Z,15.23
2019-01-02T12:21:14.749Z,15.30
2019-01-02T12:23:45.388Z,14.63
2019-01-02T12:26:16.117Z,17.40
2019-01-02T12:28:46.821Z,20.50
2019-01-02T12:31:17.544Z,13.33
2019-01-02T12:33:48.085Z,16.27
2019-01-02T12:36:18.742Z,15.70
2019-01-02T12:38:49.366Z,14.50
2019-01-02T12:41:20.009Z,11.07
2019-01-02T12:43:50.719Z,18.73
2019-01-02T12:46:21.417Z,23.70
2019-01-02T12:48:52.121Z,10.50
2019-01-02T12:51:22.761Z,13.83
2019-01-02T12:53:53.383Z,17.90
2019-01-02T12:56:24.139Z,22.03
2019-01-02T12:58:54.834Z,11.23
2019-01-02T13:01:39.106Z,15.70
2019-01-02T13:04:36.329Z,14.90
2019-01-02T13:07:37.247Z,15.97
2019-01-02T13:10:51.120Z,10.80
2019-01-02T13:14:14.730Z,19.87
2019-01-02T13:17:07.694Z,19.83
2019-01-02T13:20:46.902Z,8.53
2019-01-02T13:24:03.699Z,10.37
2019-01-02T13:26:42.593Z,9.33
2019-01-02T13:30:08.869Z,13.30
2019-01-02T13:33:02.348Z,14.40
2019-01-02T13:36:00.246Z,15.00
2019-01-02T13:38:40.607Z,10.70
2019-01-02T13:41:43.602Z,23.67
2019-01-02T13:44:28.853Z,10.00
2019-01-02T13:47:35.461Z,16.83
2019-01-02T13:50:22.034Z,19.20
2019-01-02T13:52:52.841Z,16.23
2019-01-02T13:55:22.883Z,11.60
2019-01-02T13:57:53.396Z,24.80
2019-01-02T14:00:24.077Z,17.07
2019-01-02T14:02:54.629Z,13.23
2019-01-02T14:05:25.285Z,12.30
2019-01-02T14:07:55.918Z,8.20
2019-01-02T14:10:26.533Z,9.30
2019-01-02T14:12:57.169Z,12.90
2019-01-02T14:15:27.783Z,26.40
2019-01-02T14:17:58.413Z,16.10
2019-01-02T14:20:28.954Z,14.40
2019-01-02T14:22:59.666Z,9.80
2019-01-02T14:25:30.370Z,15.37
2019-01-02T14:28:01.013Z,15.73
2019-01-02T14:30:31.642Z,12.13
2019-01-02T14:33:02.377Z,18.60
2019-01-02T14:35:38.994Z,10.03
2019-01-02T14:38:09.711Z,16.13
2019-01-02T14:40:40.401Z,17.77
2019-01-02T14:43:11.146Z,13.80
2019-01-02T14:45:41.845Z,16.77
2019-01-02T14:48:12.482Z,15.20
2019-01-02T14:50:43.105Z,7.53
2019-01-02T14:53:13.670Z,14.50
2019-01-02T14:55:44.348Z,10.50
2019-01-02T14:58:14.988Z,10.80
2019-01-02T15:00:45.617Z,12.30
2019-01-02T15:03:16.342Z,15.63
2019-01-02T15:05:46.971Z,12.00
2019-01-02T15:08:17.684Z,12.77
2019-01-02T15:10:48.308Z,14.00
2019-01-02T15:13:19.021Z,16.27
2019-01-02T15:15:49.638Z,11.33
2019-01-02T15:18:20.426Z,10.10
2019-01-02T15:20:51.340Z,9.87
2019-01-02T15:23:22.052Z,10.53
2019-01-02T15:25:52.753Z,11.60
2019-01-02T15:28:23.412Z,10.03
2019-01-02T15:30:54.026Z,15.83
2019-01-02T15:33:24.677Z,14.37
2019-01-02T15:35:55.410Z,15.80
2019-01-02T15:38:26.114Z,18.43
2019-01-02T15:40:56.817Z,10.57
2019-01-02T15:43:27.465Z,10.73
2019-01-02T15:45:58.145Z,8.23
2019-01-02T15:48:28.845Z,18.27
2019-01-02T15:50:59.381Z,11.33
2019-01-02T15:53:30.089Z,10.47
2019-01-02T15:56:00.706Z,7.30
2019-01-02T15:58:31.349Z,11.70
2019-01-02T16:01:01.958Z,11.80
2019-01-02T16:03:32.661Z,10.20
2019-01-02T16:06:03.347Z,13.30
2019-01-02T16:08:33.989Z,13.30
2019-01-02T16:11:04.596Z,13.33
2019-01-02T16:13:35.309Z,10.03
2019-01-02T16:16:05.921Z,7.80
2019-01-02T16:18:36.473Z,19.13
2019-01-02T16:21:07.164Z,13.70
2019-01-02T16:23:37.792Z,9.07
2019-01-02T16:26:08.405Z,10.93
2019-01-02T16:28:39.007Z,11.60
2019-01-02T16:31:09.749Z,11.40
2019-01-02T16:33:40.461Z,9.87
2019-01-02T16:36:11.080Z,4.80
2019-01-02T16:38:44.338Z,22.33
2019-01-02T16:41:15.080Z,58.20
2019-01-02T16:43:50.303Z,22.10
2019-01-02T16:46:20.575Z,18.10
2019-01-02T16:48:50.725Z,13.63
2019-01-02T16:51:20.633Z,14.20
2019-01-02T16:53:51.162Z,13.57
2019-01-02T16:56:24.954Z,17.50
2019-01-02T16:58:55.781Z,31.57
2019-01-02T17:01:27.971Z,16.10
2019-01-02T17:04:00.569Z,21.70
2019-01-02T17:06:32.543Z,12.70
2019-01-02T17:09:06.790Z,18.30
2019-01-02T17:11:37.441Z,11.37
2019-01-02T17:14:08.181Z,13.73
2019-01-02T17:16:39.053Z,12.43
2019-01-02T17:19:09.814Z,13.80
2019-01-02T17:21:40.503Z,15.57
2019-01-02T17:24:15.774Z,13.37
2019-01-02T17:26:46.477Z,13.03
2019-01-02T17:29:17.196Z,12.33
2019-01-02T17:31:47.870Z,13.60
2019-01-02T17:34:18.597Z,10.20
2019-01-02T17:36:49.298Z,14.33
2019-01-02T17:39:20.659Z,18.97
2019-01-02T17:41:51.468Z,17.03
2019-01-02T17:44:22.348Z,16.27
2019-01-02T17:46:53.305Z,21.40
2019-01-02T17:49:24.070Z,14.53
2019-01-02T17:51:54.678Z,12.73
2019-01-02T17:54:26.416Z,19.43
2019-01-02T17:56:56.945Z,18.40
2019-01-02T17:59:27.695Z,12.07
2019-01-02T18:01:58.320Z,13.03
2019-01-02T18:04:29.039Z,24.10
2019-01-02T18:06:59.768Z,18.90
2019-01-02T18:09:30.493Z,20.50
2019-01-02T18:12:01.205Z,22.23
2019-01-02T18:14:31.875Z,21.83
2019-01-02T18:17:02.513Z,18.40
2019-01-02T18:19:33.284Z,23.17
2019-01-02T18:22:03.918Z,15.20
2019-01-02T18:24:34.674Z,14.77
2019-01-02T18:27:05.379Z,16.80
2019-01-02T18:29:36.120Z,19.03
2019-01-02T18:32:07.814Z,17.00
2019-01-02T18:34:38.559Z,19.60
2019-01-02T18:37:10.578Z,18.30
2019-01-02T18:39:41.374Z,28.20
2019-01-02T18:42:12.166Z,27.27
2019-01-02T18:44:42.957Z,20.60
2019-01-02T18:47:13.677Z,17.70
2019-01-02T18:49:44.367Z,22.50
2019-01-02T18:52:15.087Z,26.47
2019-01-02T18:54:45.854Z,16.63
2019-01-02T18:57:16.567Z,20.47
2019-01-02T18:59:48.533Z,14.43
2019-01-02T19:02:23.118Z,14.70
2019-01-02T19:04:53.886Z,21.80
2019-01-02T19:07:24.913Z,45.13
2019-01-02T19:09:55.589Z,86.20
2019-01-02T19:12:29.270Z,78.60
2019-01-02T19:15:00.011Z,97.70
2019-01-02T19:17:30.722Z,75.93
2019-01-02T19:20:01.462Z,60.47
2019-01-02T19:22:32.178Z,39.77
2019-01-02T19:25:02.854Z,43.07
2019-01-02T19:27:33.481Z,20.43
2019-01-02T19:30:04.801Z,24.73
2019-01-02T19:32:35.449Z,20.27
2019-01-02T19:35:06.767Z,22.27
2019-01-02T19:37:39.455Z,20.03
2019-01-02T19:40:09.825Z,18.13
2019-01-02T19:42:40.525Z,12.60
2019-01-02T19:45:11.238Z,16.30
2019-01-02T19:47:41.894Z,20.13
2019-01-02T19:50:12.606Z,36.17
2019-01-02T19:52:43.351Z,20.87
2019-01-02T19:55:14.066Z,27.07
2019-01-02T19:57:44.831Z,16.50
2019-01-02T20:00:15.621Z,16.93
2019-01-02T20:02:46.361Z,22.83
2019-01-02T20:05:17.077Z,19.80
2019-01-02T20:07:47.753Z,18.23
2019-01-02T20:10:18.398Z,24.67
2019-01-02T20:12:49.151Z,24.77
2019-01-02T20:15:19.277Z,23.93
2019-01-02T20:17:49.770Z,30.07
2019-01-02T20:20:20.561Z,78.83
2019-01-02T20:22:52.605Z,67.83
2019-01-02T20:25:23.276Z,64.97
2019-01-02T20:27:53.926Z,61.40
2019-01-02T20:30:24.588Z,45.87
2019-01-02T20:32:55.284Z,29.10
2019-01-02T20:35:25.660Z,26.90
2019-01-02T20:37:56.331Z,27.83
2019-01-02T20:40:27.062Z,31.27
2019-01-02T20:42:57.758Z,23.27
2019-01-02T20:45:28.502Z,31.90
2019-01-02T20:47:59.232Z,36.87
2019-01-02T20:50:30.297Z,19.13
2019-01-02T20:53:01.392Z,14.70
2019-01-02T20:55:32.095Z,21.73
2019-01-02T20:58:02.838Z,24.33
2019-01-02T21:00:33.602Z,16.70
2019-01-02T21:03:04.385Z,12.37
2019-01-02T21:05:35.118Z,17.63
2019-01-02T21:08:05.899Z,15.60
2019-01-02T21:10:37.301Z,15.30
2019-01-02T21:13:08.050Z,13.87
2019-01-02T21:15:38.808Z,19.50
2019-01-02T21:18:10.577Z,12.10
2019-01-02T21:20:41.350Z,13.20
2019-01-02T21:23:12.345Z,18.17
2019-01-02T21:25:43.064Z,12.87
2019-01-02T21:28:14.072Z,11.90
2019-01-02T21:30:44.701Z,12.37
2019-01-02T21:33:15.452Z,14.37
2019-01-02T21:35:46.170Z,14.30
2019-01-02T21:38:16.819Z,16.03
2019-01-02T21:40:47.529Z,21.23
2019-01-02T21:43:18.206Z,9.03
2019-01-02T21:45:48.834Z,10.40
2019-01-02T21:48:19.549Z,13.33
2019-01-02T21:50:50.261Z,9.10
2019-01-02T21:53:20.982Z,12.70
2019-01-02T21:55:51.606Z,17.90
2019-01-02T21:58:22.268Z,10.43
2019-01-02T22:00:52.949Z,9.13
2019-01-02T22:03:23.588Z,4.33
2019-01-02T22:05:54.282Z,7.53
2019-01-02T22:08:24.921Z,7.70
2019-01-02T22:10:55.554Z,4.60
2019-01-02T22:13:26.261Z,4.73
2019-01-02T22:15:56.794Z,4.40
2019-01-02T22:18:27.434Z,6.40
2019-01-02T22:20:58.121Z,5.57
2019-01-02T22:23:28.779Z,3.03
2019-01-02T22:25:59.465Z,2.20
2019-01-02T22:28:30.207Z,3.43
2019-01-02T22:31:00.906Z,4.80
2019-01-02T22:33:31.617Z,3.67
2019-01-02T22:36:02.238Z,3.90
2019-01-02T22:38:32.877Z,4.93
2019-01-02T22:41:03.573Z,3.93
2019-01-02T22:43:34.154Z,3.10
2019-01-02T22:46:04.848Z,5.50
2019-01-02T22:48:35.621Z,9.70
2019-01-02T22:51:06.341Z,8.33
2019-01-02T22:53:37.053Z,14.10
2019-01-02T22:56:07.671Z,5.47
2019-01-02T22:58:38.375Z,3.80
2019-01-02T23:01:37.044Z,8.90
2019-01-02T23:04:26.645Z,5.87
2019-01-02T23:07:34.526Z,6.43
2019-01-02T23:10:17.097Z,6.20
2019-01-02T23:13:12.609Z,7.67
2019-01-02T23:16:11.449Z,4.70
2019-01-02T23:19:07.005Z,5.40
2019-01-02T23:21:56.594Z,4.60
2019-01-02T23:24:45.162Z,10.53
2019-01-02T23:27:33.906Z,7.80
2019-01-02T23:30:24.589Z,7.37
2019-01-02T23:33:12.704Z,4.57
2019-01-02T23:36:10.490Z,8.73
2019-01-02T23:39:09.177Z,5.97
2019-01-02T23:42:16.985Z,5.33
2019-01-02T23:45:09.720Z,9.73
2019-01-02T23:47:57.650Z,4.53
2019-01-02T23:51:05.421Z,5.83
2019-01-02T23:53:55.017Z,5.80
2019-01-02T23:56:53.560Z,15.93
2019-01-02T23:59:49.082Z,9.50
